sensor_id;sensor_type;location;lat;lon;timestamp;P1;durP1;ratioP1;P2;durP2;ratioP2
2840;SDS011;53423;49.224;12.074;2023-03-13T00:01:00;20.67;;;18.70;;
2840;SDS011;53423;49.224;12.074;2023-03-13T00:03:31;20.33;;;18.30;;
2840;SDS011;53423;49.224;12.074;2023-03-13T00:05:59;18.70;;;16.90;;
2840;SDS011;53423;49.224;12.074;2023-03-13T00:08:28;18.43;;;16.53;;
2840;SDS011;53423;49.224;12.074;2023-03-13T00:10:56;18.93;;;17.13;;
2840;SDS011;53423;49.224;12.074;2023-03-13T00:13:24;19.27;;;17.43;;
2840;SDS011;53423;49.224;12.074;2023-03-13T00:15:58;18.53;;;16.70;;
2840;SDS011;53423;49.224;12.074;2023-03-13T00:18:27;21.27;;;19.10;;
2840;SDS011;53423;49.224;12.074;2023-03-13T00:20:59;19.97;;;17.87;;
2840;SDS011;53423;49.224;12.074;2023-03-13T00:23:28;22.73;;;18.67;;
2840;SDS011;53423;49.224;12.074;2023-03-13T00:25:56;21.23;;;19.03;;
2840;SDS011;53423;49.224;12.074;2023-03-13T00:28:26;19.90;;;17.90;;
2840;SDS011;53423;49.224;12.074;2023-03-13T00:31:01;20.17;;;18.13;;
2840;SDS011;53423;49.224;12.074;2023-03-13T00:33:31;19.17;;;17.37;;
2840;SDS011;53423;49.224;12.074;2023-03-13T00:36:01;21.03;;;18.80;;
2840;SDS011;53423;49.224;12.074;2023-03-13T00:38:30;23.83;;;21.33;;
2840;SDS011;53423;49.224;12.074;2023-03-13T00:40:59;24.87;;;21.47;;
2840;SDS011;53423;49.224;12.074;2023-03-13T00:43:28;18.80;;;16.90;;
2840;SDS011;53423;49.224;12.074;2023-03-13T00:45:56;19.77;;;17.67;;
2840;SDS011;53423;49.224;12.074;2023-03-13T00:48:24;19.50;;;17.50;;
2840;SDS011;53423;49.224;12.074;2023-03-13T00:50:52;18.40;;;16.50;;
2840;SDS011;53423;49.224;12.074;2023-03-13T00:53:21;18.63;;;16.63;;
2840;SDS011;53423;49.224;12.074;2023-03-13T00:55:50;17.70;;;15.87;;
2840;SDS011;53423;49.224;12.074;2023-03-13T00:58:19;17.93;;;16.23;;
2840;SDS011;53423;49.224;12.074;2023-03-13T01:00:48;17.90;;;15.43;;
2840;SDS011;53423;49.224;12.074;2023-03-13T01:03:16;16.97;;;15.37;;
2840;SDS011;53423;49.224;12.074;2023-03-13T01:05:45;16.40;;;14.70;;
2840;SDS011;53423;49.224;12.074;2023-03-13T01:08:23;16.27;;;14.60;;
2840;SDS011;53423;49.224;12.074;2023-03-13T01:10:56;17.00;;;15.30;;
2840;SDS011;53423;49.224;12.074;2023-03-13T01:13:24;17.80;;;15.20;;
2840;SDS011;53423;49.224;12.074;2023-03-13T01:15:53;16.87;;;15.13;;
2840;SDS011;53423;49.224;12.074;2023-03-13T01:18:21;16.73;;;15.03;;
2840;SDS011;53423;49.224;12.074;2023-03-13T01:20:49;18.93;;;17.03;;
2840;SDS011;53423;49.224;12.074;2023-03-13T01:23:17;18.37;;;16.37;;
2840;SDS011;53423;49.224;12.074;2023-03-13T01:25:46;18.00;;;15.87;;
2840;SDS011;53423;49.224;12.074;2023-03-13T01:28:14;17.03;;;15.23;;
2840;SDS011;53423;49.224;12.074;2023-03-13T01:30:42;15.40;;;13.83;;
2840;SDS011;53423;49.224;12.074;2023-03-13T01:33:10;14.97;;;13.47;;
2840;SDS011;53423;49.224;12.074;2023-03-13T01:35:38;14.70;;;13.20;;
2840;SDS011;53423;49.224;12.074;2023-03-13T01:38:06;14.63;;;13.10;;
2840;SDS011;53423;49.224;12.074;2023-03-13T01:40:37;15.13;;;13.60;;
2840;SDS011;53423;49.224;12.074;2023-03-13T01:43:17;14.43;;;12.60;;
2840;SDS011;53423;49.224;12.074;2023-03-13T01:46:03;16.20;;;13.23;;
2840;SDS011;53423;49.224;12.074;2023-03-13T01:48:40;15.20;;;13.60;;
2840;SDS011;53423;49.224;12.074;2023-03-13T01:51:12;14.10;;;12.70;;
2840;SDS011;53423;49.224;12.074;2023-03-13T01:53:43;13.87;;;12.23;;
2840;SDS011;53423;49.224;12.074;2023-03-13T01:56:15;14.50;;;13.03;;
2840;SDS011;53423;49.224;12.074;2023-03-13T01:58:48;15.37;;;11.97;;
2840;SDS011;53423;49.224;12.074;2023-03-13T02:01:18;13.80;;;12.43;;
2840;SDS011;53423;49.224;12.074;2023-03-13T02:03:47;14.07;;;11.83;;
2840;SDS011;53423;49.224;12.074;2023-03-13T02:06:16;14.07;;;12.30;;
2840;SDS011;53423;49.224;12.074;2023-03-13T02:08:46;12.40;;;11.20;;
2840;SDS011;53423;49.224;12.074;2023-03-13T02:11:26;12.37;;;11.00;;
2840;SDS011;53423;49.224;12.074;2023-03-13T02:14:00;13.13;;;11.73;;
2840;SDS011;53423;49.224;12.074;2023-03-13T02:16:31;12.60;;;11.30;;
2840;SDS011;53423;49.224;12.074;2023-03-13T02:19:01;12.77;;;11.33;;
2840;SDS011;53423;49.224;12.074;2023-03-13T02:21:35;13.60;;;12.20;;
2840;SDS011;53423;49.224;12.074;2023-03-13T02:24:10;12.70;;;11.43;;
2840;SDS011;53423;49.224;12.074;2023-03-13T02:26:45;12.43;;;11.13;;
2840;SDS011;53423;49.224;12.074;2023-03-13T02:29:13;13.00;;;11.70;;
2840;SDS011;53423;49.224;12.074;2023-03-13T02:31:45;14.93;;;11.67;;
2840;SDS011;53423;49.224;12.074;2023-03-13T02:34:13;12.23;;;10.87;;
2840;SDS011;53423;49.224;12.074;2023-03-13T02:36:44;11.87;;;10.50;;
2840;SDS011;53423;49.224;12.074;2023-03-13T02:39:14;13.40;;;10.83;;
2840;SDS011;53423;49.224;12.074;2023-03-13T02:41:47;14.00;;;10.87;;
2840;SDS011;53423;49.224;12.074;2023-03-13T02:44:16;11.63;;;10.40;;
2840;SDS011;53423;49.224;12.074;2023-03-13T02:46:45;13.13;;;11.13;;
2840;SDS011;53423;49.224;12.074;2023-03-13T02:49:18;11.47;;;10.07;;
2840;SDS011;53423;49.224;12.074;2023-03-13T02:51:48;11.57;;;10.30;;
2840;SDS011;53423;49.224;12.074;2023-03-13T02:54:18;12.93;;;11.60;;
2840;SDS011;53423;49.224;12.074;2023-03-13T02:56:50;11.13;;;10.03;;
2840;SDS011;53423;49.224;12.074;2023-03-13T02:59:21;13.93;;;11.03;;
2840;SDS011;53423;49.224;12.074;2023-03-13T03:01:49;11.17;;;9.50;;
2840;SDS011;53423;49.224;12.074;2023-03-13T03:04:18;13.57;;;10.27;;
2840;SDS011;53423;49.224;12.074;2023-03-13T03:06:47;12.90;;;11.00;;
2840;SDS011;53423;49.224;12.074;2023-03-13T03:09:16;11.57;;;9.90;;
2840;SDS011;53423;49.224;12.074;2023-03-13T03:11:45;11.00;;;9.60;;
2840;SDS011;53423;49.224;12.074;2023-03-13T03:14:14;11.90;;;9.77;;
2840;SDS011;53423;49.224;12.074;2023-03-13T03:16:43;10.93;;;9.77;;
2840;SDS011;53423;49.224;12.074;2023-03-13T03:19:11;11.90;;;9.77;;
2840;SDS011;53423;49.224;12.074;2023-03-13T03:21:39;11.33;;;10.07;;
2840;SDS011;53423;49.224;12.074;2023-03-13T03:24:07;11.23;;;9.47;;
2840;SDS011;53423;49.224;12.074;2023-03-13T03:26:35;10.43;;;9.23;;
2840;SDS011;53423;49.224;12.074;2023-03-13T03:29:03;11.40;;;9.13;;
2840;SDS011;53423;49.224;12.074;2023-03-13T03:31:34;9.47;;;8.37;;
2840;SDS011;53423;49.224;12.074;2023-03-13T03:34:02;9.67;;;8.63;;
2840;SDS011;53423;49.224;12.074;2023-03-13T03:36:30;10.27;;;8.87;;
2840;SDS011;53423;49.224;12.074;2023-03-13T03:38:58;8.93;;;8.03;;
2840;SDS011;53423;49.224;12.074;2023-03-13T03:41:26;11.03;;;9.00;;
2840;SDS011;53423;49.224;12.074;2023-03-13T03:43:54;10.63;;;8.33;;
2840;SDS011;53423;49.224;12.074;2023-03-13T03:46:22;9.43;;;7.97;;
2840;SDS011;53423;49.224;12.074;2023-03-13T03:48:52;9.97;;;8.03;;
2840;SDS011;53423;49.224;12.074;2023-03-13T03:51:20;9.63;;;8.07;;
2840;SDS011;53423;49.224;12.074;2023-03-13T03:53:48;9.10;;;8.20;;
2840;SDS011;53423;49.224;12.074;2023-03-13T03:56:16;9.57;;;8.57;;
2840;SDS011;53423;49.224;12.074;2023-03-13T03:58:44;9.60;;;8.60;;
2840;SDS011;53423;49.224;12.074;2023-03-13T04:01:12;8.57;;;7.67;;
2840;SDS011;53423;49.224;12.074;2023-03-13T04:03:40;10.00;;;8.60;;
2840;SDS011;53423;49.224;12.074;2023-03-13T04:06:09;9.70;;;8.40;;
2840;SDS011;53423;49.224;12.074;2023-03-13T04:08:37;10.07;;;8.73;;
2840;SDS011;53423;49.224;12.074;2023-03-13T04:11:07;12.30;;;8.60;;
2840;SDS011;53423;49.224;12.074;2023-03-13T04:13:35;9.83;;;8.80;;
2840;SDS011;53423;49.224;12.074;2023-03-13T04:16:05;10.07;;;9.00;;
2840;SDS011;53423;49.224;12.074;2023-03-13T04:18:34;10.97;;;9.30;;
2840;SDS011;53423;49.224;12.074;2023-03-13T04:21:03;9.57;;;8.57;;
2840;SDS011;53423;49.224;12.074;2023-03-13T04:23:33;10.13;;;9.13;;
2840;SDS011;53423;49.224;12.074;2023-03-13T04:26:01;11.57;;;8.77;;
2840;SDS011;53423;49.224;12.074;2023-03-13T04:28:29;9.60;;;8.60;;
2840;SDS011;53423;49.224;12.074;2023-03-13T04:30:57;9.40;;;8.50;;
2840;SDS011;53423;49.224;12.074;2023-03-13T04:33:26;9.33;;;7.90;;
2840;SDS011;53423;49.224;12.074;2023-03-13T04:35:55;9.67;;;8.80;;
2840;SDS011;53423;49.224;12.074;2023-03-13T04:38:23;10.70;;;8.70;;
2840;SDS011;53423;49.224;12.074;2023-03-13T04:40:52;9.70;;;8.70;;
2840;SDS011;53423;49.224;12.074;2023-03-13T04:43:20;10.43;;;8.00;;
2840;SDS011;53423;49.224;12.074;2023-03-13T04:45:50;8.50;;;7.70;;
2840;SDS011;53423;49.224;12.074;2023-03-13T04:48:19;10.03;;;7.47;;
2840;SDS011;53423;49.224;12.074;2023-03-13T04:50:47;9.87;;;8.30;;
2840;SDS011;53423;49.224;12.074;2023-03-13T04:53:16;8.90;;;8.00;;
2840;SDS011;53423;49.224;12.074;2023-03-13T04:55:46;8.60;;;7.53;;
2840;SDS011;53423;49.224;12.074;2023-03-13T04:58:16;8.70;;;7.83;;
2840;SDS011;53423;49.224;12.074;2023-03-13T05:00:44;10.60;;;8.27;;
2840;SDS011;53423;49.224;12.074;2023-03-13T05:03:12;8.57;;;7.70;;
2840;SDS011;53423;49.224;12.074;2023-03-13T05:05:40;8.90;;;8.07;;
2840;SDS011;53423;49.224;12.074;2023-03-13T05:08:08;7.70;;;7.00;;
2840;SDS011;53423;49.224;12.074;2023-03-13T05:10:36;9.07;;;8.03;;
2840;SDS011;53423;49.224;12.074;2023-03-13T05:13:04;7.67;;;6.83;;
2840;SDS011;53423;49.224;12.074;2023-03-13T05:15:33;7.97;;;7.17;;
2840;SDS011;53423;49.224;12.074;2023-03-13T05:18:01;7.90;;;7.03;;
2840;SDS011;53423;49.224;12.074;2023-03-13T05:20:29;9.57;;;7.33;;
2840;SDS011;53423;49.224;12.074;2023-03-13T05:22:57;8.17;;;7.37;;
2840;SDS011;53423;49.224;12.074;2023-03-13T05:25:25;9.57;;;7.17;;
2840;SDS011;53423;49.224;12.074;2023-03-13T05:27:53;9.50;;;6.93;;
2840;SDS011;53423;49.224;12.074;2023-03-13T05:30:21;8.50;;;6.63;;
2840;SDS011;53423;49.224;12.074;2023-03-13T05:32:50;7.43;;;6.73;;
2840;SDS011;53423;49.224;12.074;2023-03-13T05:35:18;8.53;;;6.90;;
2840;SDS011;53423;49.224;12.074;2023-03-13T05:37:46;8.17;;;6.70;;
2840;SDS011;53423;49.224;12.074;2023-03-13T05:40:14;8.00;;;6.27;;
2840;SDS011;53423;49.224;12.074;2023-03-13T05:42:43;7.30;;;6.10;;
2840;SDS011;53423;49.224;12.074;2023-03-13T05:45:11;7.20;;;6.50;;
2840;SDS011;53423;49.224;12.074;2023-03-13T05:47:39;8.53;;;6.10;;
2840;SDS011;53423;49.224;12.074;2023-03-13T05:50:10;6.20;;;5.60;;
2840;SDS011;53423;49.224;12.074;2023-03-13T05:52:38;7.87;;;6.13;;
2840;SDS011;53423;49.224;12.074;2023-03-13T05:55:06;10.07;;;6.47;;
2840;SDS011;53423;49.224;12.074;2023-03-13T05:57:34;7.57;;;6.60;;
2840;SDS011;53423;49.224;12.074;2023-03-13T06:00:02;9.07;;;5.90;;
2840;SDS011;53423;49.224;12.074;2023-03-13T06:02:30;7.67;;;6.53;;
2840;SDS011;53423;49.224;12.074;2023-03-13T06:04:58;7.27;;;6.57;;
2840;SDS011;53423;49.224;12.074;2023-03-13T06:07:27;8.17;;;6.90;;
2840;SDS011;53423;49.224;12.074;2023-03-13T06:09:55;7.80;;;6.67;;
2840;SDS011;53423;49.224;12.074;2023-03-13T06:12:23;8.30;;;7.03;;
2840;SDS011;53423;49.224;12.074;2023-03-13T06:14:51;7.80;;;7.10;;
2840;SDS011;53423;49.224;12.074;2023-03-13T06:17:19;6.37;;;5.70;;
2840;SDS011;53423;49.224;12.074;2023-03-13T06:19:47;8.73;;;6.33;;
2840;SDS011;53423;49.224;12.074;2023-03-13T06:22:15;9.00;;;6.57;;
2840;SDS011;53423;49.224;12.074;2023-03-13T06:24:45;7.20;;;6.50;;
2840;SDS011;53423;49.224;12.074;2023-03-13T06:27:15;8.63;;;6.57;;
2840;SDS011;53423;49.224;12.074;2023-03-13T06:29:43;7.03;;;5.83;;
2840;SDS011;53423;49.224;12.074;2023-03-13T06:32:11;7.87;;;6.30;;
2840;SDS011;53423;49.224;12.074;2023-03-13T06:34:40;6.60;;;5.90;;
2840;SDS011;53423;49.224;12.074;2023-03-13T06:37:08;6.70;;;5.70;;
2840;SDS011;53423;49.224;12.074;2023-03-13T06:39:36;7.27;;;6.43;;
2840;SDS011;53423;49.224;12.074;2023-03-13T06:42:06;8.60;;;5.90;;
2840;SDS011;53423;49.224;12.074;2023-03-13T06:44:34;7.90;;;5.77;;
2840;SDS011;53423;49.224;12.074;2023-03-13T06:47:02;6.57;;;5.87;;
2840;SDS011;53423;49.224;12.074;2023-03-13T06:49:30;6.50;;;5.83;;
2840;SDS011;53423;49.224;12.074;2023-03-13T06:51:58;6.93;;;6.20;;
2840;SDS011;53423;49.224;12.074;2023-03-13T06:54:26;6.83;;;6.00;;
2840;SDS011;53423;49.224;12.074;2023-03-13T06:56:54;7.67;;;5.67;;
2840;SDS011;53423;49.224;12.074;2023-03-13T06:59:23;6.97;;;6.20;;
2840;SDS011;53423;49.224;12.074;2023-03-13T07:01:51;7.73;;;5.93;;
2840;SDS011;53423;49.224;12.074;2023-03-13T07:04:19;6.63;;;6.13;;
2840;SDS011;53423;49.224;12.074;2023-03-13T07:06:47;7.10;;;6.00;;
2840;SDS011;53423;49.224;12.074;2023-03-13T07:09:15;6.13;;;5.53;;
2840;SDS011;53423;49.224;12.074;2023-03-13T07:11:45;8.53;;;5.43;;
2840;SDS011;53423;49.224;12.074;2023-03-13T07:14:13;6.23;;;5.63;;
2840;SDS011;53423;49.224;12.074;2023-03-13T07:16:44;6.13;;;5.07;;
2840;SDS011;53423;49.224;12.074;2023-03-13T07:19:13;6.10;;;5.30;;
2840;SDS011;53423;49.224;12.074;2023-03-13T07:21:41;7.00;;;5.33;;
2840;SDS011;53423;49.224;12.074;2023-03-13T07:24:09;5.03;;;4.53;;
2840;SDS011;53423;49.224;12.074;2023-03-13T07:26:37;7.10;;;5.40;;
2840;SDS011;53423;49.224;12.074;2023-03-13T07:29:13;6.10;;;5.20;;
2840;SDS011;53423;49.224;12.074;2023-03-13T07:31:42;8.03;;;4.90;;
2840;SDS011;53423;49.224;12.074;2023-03-13T07:34:11;7.37;;;4.83;;
2840;SDS011;53423;49.224;12.074;2023-03-13T07:36:39;6.30;;;5.30;;
2840;SDS011;53423;49.224;12.074;2023-03-13T07:39:07;6.30;;;5.27;;
2840;SDS011;53423;49.224;12.074;2023-03-13T07:41:35;5.77;;;5.00;;
2840;SDS011;53423;49.224;12.074;2023-03-13T07:44:05;6.40;;;5.57;;
2840;SDS011;53423;49.224;12.074;2023-03-13T07:46:33;5.47;;;4.90;;
2840;SDS011;53423;49.224;12.074;2023-03-13T07:49:01;6.77;;;5.23;;
2840;SDS011;53423;49.224;12.074;2023-03-13T07:51:30;5.23;;;4.37;;
2840;SDS011;53423;49.224;12.074;2023-03-13T07:54:08;4.67;;;4.27;;
2840;SDS011;53423;49.224;12.074;2023-03-13T07:56:37;4.93;;;4.47;;
2840;SDS011;53423;49.224;12.074;2023-03-13T07:59:05;4.67;;;4.27;;
2840;SDS011;53423;49.224;12.074;2023-03-13T08:01:33;5.33;;;4.20;;
2840;SDS011;53423;49.224;12.074;2023-03-13T08:04:01;5.77;;;3.70;;
2840;SDS011;53423;49.224;12.074;2023-03-13T08:06:31;4.80;;;3.80;;
2840;SDS011;53423;49.224;12.074;2023-03-13T08:09:01;5.77;;;3.80;;
2840;SDS011;53423;49.224;12.074;2023-03-13T08:11:29;4.40;;;4.00;;
2840;SDS011;53423;49.224;12.074;2023-03-13T08:13:56;5.00;;;4.13;;
2840;SDS011;53423;49.224;12.074;2023-03-13T08:16:25;4.57;;;4.07;;
2840;SDS011;53423;49.224;12.074;2023-03-13T08:18:55;4.13;;;3.73;;
2840;SDS011;53423;49.224;12.074;2023-03-13T08:21:25;4.33;;;3.93;;
2840;SDS011;53423;49.224;12.074;2023-03-13T08:23:56;4.47;;;4.07;;
2840;SDS011;53423;49.224;12.074;2023-03-13T08:26:26;4.17;;;3.77;;
2840;SDS011;53423;49.224;12.074;2023-03-13T08:28:56;4.30;;;3.90;;
2840;SDS011;53423;49.224;12.074;2023-03-13T08:31:26;4.60;;;4.00;;
2840;SDS011;53423;49.224;12.074;2023-03-13T08:33:55;4.23;;;3.90;;
2840;SDS011;53423;49.224;12.074;2023-03-13T08:36:24;4.30;;;3.90;;
2840;SDS011;53423;49.224;12.074;2023-03-13T08:38:54;4.30;;;3.90;;
2840;SDS011;53423;49.224;12.074;2023-03-13T08:41:25;4.70;;;3.80;;
2840;SDS011;53423;49.224;12.074;2023-03-13T08:43:55;3.60;;;3.27;;
2840;SDS011;53423;49.224;12.074;2023-03-13T08:46:23;4.03;;;3.70;;
2840;SDS011;53423;49.224;12.074;2023-03-13T08:48:52;4.13;;;3.30;;
2840;SDS011;53423;49.224;12.074;2023-03-13T08:51:22;4.60;;;3.97;;
2840;SDS011;53423;49.224;12.074;2023-03-13T08:53:51;4.70;;;3.30;;
2840;SDS011;53423;49.224;12.074;2023-03-13T08:56:23;4.50;;;3.53;;
2840;SDS011;53423;49.224;12.074;2023-03-13T08:58:54;4.10;;;3.53;;
2840;SDS011;53423;49.224;12.074;2023-03-13T09:01:23;4.20;;;3.80;;
2840;SDS011;53423;49.224;12.074;2023-03-13T09:03:52;3.60;;;3.30;;
2840;SDS011;53423;49.224;12.074;2023-03-13T09:06:21;3.87;;;3.57;;
2840;SDS011;53423;49.224;12.074;2023-03-13T09:08:49;3.63;;;3.30;;
2840;SDS011;53423;49.224;12.074;2023-03-13T09:11:17;4.90;;;3.57;;
2840;SDS011;53423;49.224;12.074;2023-03-13T09:13:48;4.23;;;3.80;;
2840;SDS011;53423;49.224;12.074;2023-03-13T09:16:18;3.37;;;3.07;;
2840;SDS011;53423;49.224;12.074;2023-03-13T09:18:47;4.10;;;3.23;;
2840;SDS011;53423;49.224;12.074;2023-03-13T09:21:17;4.80;;;2.97;;
2840;SDS011;53423;49.224;12.074;2023-03-13T09:23:47;4.73;;;3.67;;
2840;SDS011;53423;49.224;12.074;2023-03-13T09:26:15;2.97;;;2.73;;
2840;SDS011;53423;49.224;12.074;2023-03-13T09:28:47;3.00;;;2.70;;
2840;SDS011;53423;49.224;12.074;2023-03-13T09:31:16;3.93;;;2.97;;
2840;SDS011;53423;49.224;12.074;2023-03-13T09:33:46;3.67;;;2.90;;
2840;SDS011;53423;49.224;12.074;2023-03-13T09:36:15;3.27;;;3.00;;
2840;SDS011;53423;49.224;12.074;2023-03-13T09:38:47;4.00;;;3.40;;
2840;SDS011;53423;49.224;12.074;2023-03-13T09:41:23;3.50;;;3.10;;
2840;SDS011;53423;49.224;12.074;2023-03-13T09:43:57;4.30;;;3.50;;
2840;SDS011;53423;49.224;12.074;2023-03-13T09:46:35;4.77;;;3.20;;
2840;SDS011;53423;49.224;12.074;2023-03-13T09:49:09;5.17;;;3.30;;
2840;SDS011;53423;49.224;12.074;2023-03-13T09:51:44;4.37;;;3.50;;
2840;SDS011;53423;49.224;12.074;2023-03-13T09:54:20;3.90;;;3.60;;
2840;SDS011;53423;49.224;12.074;2023-03-13T09:56:51;4.67;;;3.57;;
2840;SDS011;53423;49.224;12.074;2023-03-13T09:59:26;4.53;;;4.10;;
2840;SDS011;53423;49.224;12.074;2023-03-13T10:01:59;3.80;;;3.40;;
2840;SDS011;53423;49.224;12.074;2023-03-13T10:04:32;4.43;;;3.77;;
2840;SDS011;53423;49.224;12.074;2023-03-13T10:07:09;4.33;;;3.93;;
2840;SDS011;53423;49.224;12.074;2023-03-13T10:09:37;4.40;;;4.00;;
2840;SDS011;53423;49.224;12.074;2023-03-13T10:12:09;5.43;;;4.23;;
2840;SDS011;53423;49.224;12.074;2023-03-13T10:14:45;4.20;;;3.80;;
2840;SDS011;53423;49.224;12.074;2023-03-13T10:17:22;4.33;;;3.90;;
2840;SDS011;53423;49.224;12.074;2023-03-13T10:19:58;5.00;;;3.67;;
2840;SDS011;53423;49.224;12.074;2023-03-13T10:22:34;3.70;;;3.30;;
2840;SDS011;53423;49.224;12.074;2023-03-13T10:25:03;4.13;;;3.73;;
2840;SDS011;53423;49.224;12.074;2023-03-13T10:27:42;4.10;;;3.70;;
2840;SDS011;53423;49.224;12.074;2023-03-13T10:30:18;3.57;;;3.27;;
2840;SDS011;53423;49.224;12.074;2023-03-13T10:32:52;2.90;;;2.70;;
2840;SDS011;53423;49.224;12.074;2023-03-13T10:35:24;3.40;;;3.10;;
2840;SDS011;53423;49.224;12.074;2023-03-13T10:38:00;2.97;;;2.77;;
2840;SDS011;53423;49.224;12.074;2023-03-13T10:40:31;3.23;;;2.97;;
2840;SDS011;53423;49.224;12.074;2023-03-13T10:42:59;3.37;;;3.07;;
2840;SDS011;53423;49.224;12.074;2023-03-13T10:45:32;3.10;;;2.80;;
2840;SDS011;53423;49.224;12.074;2023-03-13T10:48:03;2.90;;;2.60;;
2840;SDS011;53423;49.224;12.074;2023-03-13T10:50:40;2.67;;;2.47;;
2840;SDS011;53423;49.224;12.074;2023-03-13T10:53:20;3.97;;;3.00;;
2840;SDS011;53423;49.224;12.074;2023-03-13T10:55:51;2.93;;;2.70;;
2840;SDS011;53423;49.224;12.074;2023-03-13T10:58:22;2.50;;;2.30;;
2840;SDS011;53423;49.224;12.074;2023-03-13T11:00:56;2.83;;;2.57;;
2840;SDS011;53423;49.224;12.074;2023-03-13T11:03:41;2.67;;;2.47;;
2840;SDS011;53423;49.224;12.074;2023-03-13T11:06:22;2.57;;;2.40;;
2840;SDS011;53423;49.224;12.074;2023-03-13T11:08:57;2.60;;;2.40;;
2840;SDS011;53423;49.224;12.074;2023-03-13T11:11:26;2.83;;;2.63;;
2840;SDS011;53423;49.224;12.074;2023-03-13T11:14:06;3.30;;;2.70;;
2840;SDS011;53423;49.224;12.074;2023-03-13T11:16:38;3.00;;;2.80;;
2840;SDS011;53423;49.224;12.074;2023-03-13T11:22:04;3.13;;;2.63;;
2840;SDS011;53423;49.224;12.074;2023-03-13T11:24:41;3.57;;;2.60;;
2840;SDS011;53423;49.224;12.074;2023-03-13T11:27:14;2.30;;;2.17;;
2840;SDS011;53423;49.224;12.074;2023-03-13T11:29:53;2.80;;;2.50;;
2840;SDS011;53423;49.224;12.074;2023-03-13T11:32:30;4.30;;;2.53;;
2840;SDS011;53423;49.224;12.074;2023-03-13T11:35:14;3.90;;;2.60;;
2840;SDS011;53423;49.224;12.074;2023-03-13T11:37:47;4.03;;;2.90;;
2840;SDS011;53423;49.224;12.074;2023-03-13T11:40:20;3.77;;;2.73;;
2840;SDS011;53423;49.224;12.074;2023-03-13T11:42:58;3.30;;;2.63;;
2840;SDS011;53423;49.224;12.074;2023-03-13T11:46:00;3.63;;;2.80;;
2840;SDS011;53423;49.224;12.074;2023-03-13T11:51:37;3.20;;;2.90;;
2840;SDS011;53423;49.224;12.074;2023-03-13T11:54:24;3.63;;;2.73;;
2840;SDS011;53423;49.224;12.074;2023-03-13T11:57:04;3.73;;;3.07;;
2840;SDS011;53423;49.224;12.074;2023-03-13T11:59:40;3.30;;;3.00;;
2840;SDS011;53423;49.224;12.074;2023-03-13T12:02:14;3.40;;;3.10;;
2840;SDS011;53423;49.224;12.074;2023-03-13T12:04:50;2.73;;;2.53;;
2840;SDS011;53423;49.224;12.074;2023-03-13T12:07:24;3.70;;;2.60;;
2840;SDS011;53423;49.224;12.074;2023-03-13T12:09:55;3.67;;;2.90;;
2840;SDS011;53423;49.224;12.074;2023-03-13T12:12:30;3.85;;;3.13;;
2840;SDS011;53423;49.224;12.074;2023-03-13T12:15:06;4.00;;;2.90;;
2840;SDS011;53423;49.224;12.074;2023-03-13T12:17:45;3.07;;;2.80;;
2840;SDS011;53423;49.224;12.074;2023-03-13T12:20:19;3.00;;;2.80;;
2840;SDS011;53423;49.224;12.074;2023-03-13T12:22:54;3.10;;;2.50;;
2840;SDS011;53423;49.224;12.074;2023-03-13T12:25:31;5.23;;;2.90;;
2840;SDS011;53423;49.224;12.074;2023-03-13T12:28:09;2.87;;;2.67;;
2840;SDS011;53423;49.224;12.074;2023-03-13T12:30:51;3.20;;;2.90;;
2840;SDS011;53423;49.224;12.074;2023-03-13T12:33:28;2.93;;;2.67;;
2840;SDS011;53423;49.224;12.074;2023-03-13T12:36:04;4.10;;;2.37;;
2840;SDS011;53423;49.224;12.074;2023-03-13T12:38:38;3.30;;;2.60;;
2840;SDS011;53423;49.224;12.074;2023-03-13T12:41:14;2.80;;;2.37;;
2840;SDS011;53423;49.224;12.074;2023-03-13T12:43:47;2.00;;;1.30;;
2840;SDS011;53423;49.224;12.074;2023-03-13T12:46:35;3.27;;;1.33;;
2840;SDS011;53423;49.224;12.074;2023-03-13T12:49:10;1.97;;;1.40;;
2840;SDS011;53423;49.224;12.074;2023-03-13T12:52:02;2.40;;;1.57;;
2840;SDS011;53423;49.224;12.074;2023-03-13T12:54:55;3.90;;;2.23;;
2840;SDS011;53423;49.224;12.074;2023-03-13T12:57:54;2.17;;;1.90;;
2840;SDS011;53423;49.224;12.074;2023-03-13T13:00:40;2.63;;;2.13;;
2840;SDS011;53423;49.224;12.074;2023-03-13T13:03:19;1.90;;;1.77;;
2840;SDS011;53423;49.224;12.074;2023-03-13T13:05:57;1.80;;;1.53;;
2840;SDS011;53423;49.224;12.074;2023-03-13T13:08:30;2.37;;;2.00;;
2840;SDS011;53423;49.224;12.074;2023-03-13T13:17:18;3.00;;;1.80;;
2840;SDS011;53423;49.224;12.074;2023-03-13T13:19:50;2.23;;;1.83;;
2840;SDS011;53423;49.224;12.074;2023-03-13T13:28:18;1.53;;;1.43;;
2840;SDS011;53423;49.224;12.074;2023-03-13T13:30:53;2.23;;;1.37;;
2840;SDS011;53423;49.224;12.074;2023-03-13T13:33:35;2.17;;;1.50;;
2840;SDS011;53423;49.224;12.074;2023-03-13T13:38:57;1.83;;;1.40;;
2840;SDS011;53423;49.224;12.074;2023-03-13T13:41:33;2.87;;;1.73;;
2840;SDS011;53423;49.224;12.074;2023-03-13T13:46:54;2.13;;;1.40;;
2840;SDS011;53423;49.224;12.074;2023-03-13T13:49:27;2.03;;;1.73;;
2840;SDS011;53423;49.224;12.074;2023-03-13T13:54:58;1.60;;;1.23;;
2840;SDS011;53423;49.224;12.074;2023-03-13T13:57:28;3.13;;;1.73;;
2840;SDS011;53423;49.224;12.074;2023-03-13T14:00:00;2.00;;;1.80;;
2840;SDS011;53423;49.224;12.074;2023-03-13T14:02:43;2.03;;;1.83;;
2840;SDS011;53423;49.224;12.074;2023-03-13T14:05:16;1.93;;;1.63;;
2840;SDS011;53423;49.224;12.074;2023-03-13T14:07:53;3.13;;;2.33;;
2840;SDS011;53423;49.224;12.074;2023-03-13T14:10:27;3.53;;;2.23;;
2840;SDS011;53423;49.224;12.074;2023-03-13T14:13:02;3.67;;;2.43;;
2840;SDS011;53423;49.224;12.074;2023-03-13T14:15:40;2.47;;;2.20;;
2840;SDS011;53423;49.224;12.074;2023-03-13T14:18:10;2.60;;;2.40;;
2840;SDS011;53423;49.224;12.074;2023-03-13T14:20:50;3.00;;;2.53;;
2840;SDS011;53423;49.224;12.074;2023-03-13T14:23:34;2.47;;;2.27;;
2840;SDS011;53423;49.224;12.074;2023-03-13T14:26:08;2.87;;;2.57;;
2840;SDS011;53423;49.224;12.074;2023-03-13T14:28:40;2.43;;;2.23;;
2840;SDS011;53423;49.224;12.074;2023-03-13T14:31:10;2.30;;;2.17;;
2840;SDS011;53423;49.224;12.074;2023-03-13T14:33:48;2.40;;;2.10;;
2840;SDS011;53423;49.224;12.074;2023-03-13T14:36:16;2.87;;;2.40;;
2840;SDS011;53423;49.224;12.074;2023-03-13T14:38:51;3.03;;;2.30;;
2840;SDS011;53423;49.224;12.074;2023-03-13T14:41:28;2.70;;;2.13;;
2840;SDS011;53423;49.224;12.074;2023-03-13T14:44:02;2.17;;;1.97;;
2840;SDS011;53423;49.224;12.074;2023-03-13T14:46:32;2.97;;;2.43;;
2840;SDS011;53423;49.224;12.074;2023-03-13T14:49:06;3.30;;;2.27;;
2840;SDS011;53423;49.224;12.074;2023-03-13T14:51:41;2.80;;;2.20;;
2840;SDS011;53423;49.224;12.074;2023-03-13T14:54:22;3.63;;;2.30;;
2840;SDS011;53423;49.224;12.074;2023-03-13T14:57:03;4.60;;;1.97;;
2840;SDS011;53423;49.224;12.074;2023-03-13T14:59:34;4.13;;;2.10;;
2840;SDS011;53423;49.224;12.074;2023-03-13T15:02:11;3.20;;;2.20;;
2840;SDS011;53423;49.224;12.074;2023-03-13T15:04:47;2.43;;;2.23;;
2840;SDS011;53423;49.224;12.074;2023-03-13T15:07:19;2.93;;;2.30;;
2840;SDS011;53423;49.224;12.074;2023-03-13T15:09:47;2.50;;;2.30;;
2840;SDS011;53423;49.224;12.074;2023-03-13T15:12:17;2.63;;;2.13;;
2840;SDS011;53423;49.224;12.074;2023-03-13T15:14:49;2.43;;;2.20;;
2840;SDS011;53423;49.224;12.074;2023-03-13T15:17:18;3.33;;;2.10;;
2840;SDS011;53423;49.224;12.074;2023-03-13T15:19:48;2.53;;;2.10;;
2840;SDS011;53423;49.224;12.074;2023-03-13T15:22:23;3.60;;;2.03;;
2840;SDS011;53423;49.224;12.074;2023-03-13T15:24:53;4.00;;;2.07;;
2840;SDS011;53423;49.224;12.074;2023-03-13T15:27:32;3.20;;;2.03;;
2840;SDS011;53423;49.224;12.074;2023-03-13T15:30:02;2.87;;;2.07;;
2840;SDS011;53423;49.224;12.074;2023-03-13T15:32:32;2.70;;;1.93;;